HKMO/MBA METAR and TAF weather

Enter ICAO airport designator
Station Type Date Time Source
HKMO METAR 2019/05/27 06:00 UTC NOAA

HKMO 270600Z 21011KT 9999 FEW022 27/24 Q1015 NOSIG


Station Type Date Time Source
HKMO Decoded METAR 2019/05/27 06:00 UTC NOAA

Mombasa, Kenya (HKMO) 04-02S 039-37E 55M
May 27, 2019 - 02:00 AM EDT / 2019.05.27 0600 UTC
Wind: from the SSW (210 degrees) at 13 MPH (11 KT):0
Visibility: greater than 7 mile(s):0
Sky conditions: mostly clear
Temperature: 80 F (27 C)
Dew Point: 75 F (24 C)
Relative Humidity: 83%
Pressure (altimeter): 29.97 in. Hg (1015 hPa)
ob: HKMO 270600Z 21011KT 9999 FEW022 27/24 Q1015 NOSIG
cycle: 6

Station Type Date Time Source
HKMO TAF 2019/05/24 00:30 UTC NOAA

TAF HKMO 232300Z 2400/2506 21010KT 9999 SCT018 BKN080
TEMPO 2403/2407 -RA BKN018 BKN080
BECMG 2409/2412 18010KT SCT024 BKN080
TEMPO 2415/2419 -RA BKN020 BKN080

Example: see airport list